sensor_id;sensor_type;location;lat;lon;timestamp;P1;durP1;ratioP1;P2;durP2;ratioP2
73266;SDS011;61495;53.400;7.608;2023-04-19T00:00:34;8.95;;;4.47;;
73266;SDS011;61495;53.400;7.608;2023-04-19T00:03:00;9.50;;;4.68;;
73266;SDS011;61495;53.400;7.608;2023-04-19T00:05:27;9.13;;;4.90;;
73266;SDS011;61495;53.400;7.608;2023-04-19T00:07:53;11.07;;;4.90;;
73266;SDS011;61495;53.400;7.608;2023-04-19T00:10:18;9.95;;;4.55;;
73266;SDS011;61495;53.400;7.608;2023-04-19T00:12:44;10.77;;;4.97;;
73266;SDS011;61495;53.400;7.608;2023-04-19T00:15:10;9.10;;;5.00;;
73266;SDS011;61495;53.400;7.608;2023-04-19T00:17:35;10.70;;;5.35;;
73266;SDS011;61495;53.400;7.608;2023-04-19T00:20:02;8.65;;;5.15;;
73266;SDS011;61495;53.400;7.608;2023-04-19T00:22:28;9.40;;;5.18;;
73266;SDS011;61495;53.400;7.608;2023-04-19T00:24:59;8.93;;;4.93;;
73266;SDS011;61495;53.400;7.608;2023-04-19T00:27:25;11.00;;;5.55;;
73266;SDS011;61495;53.400;7.608;2023-04-19T00:29:50;11.20;;;5.68;;
73266;SDS011;61495;53.400;7.608;2023-04-19T00:32:16;9.88;;;5.40;;
73266;SDS011;61495;53.400;7.608;2023-04-19T00:34:41;10.00;;;4.88;;
73266;SDS011;61495;53.400;7.608;2023-04-19T00:37:07;11.95;;;5.82;;
73266;SDS011;61495;53.400;7.608;2023-04-19T00:39:33;9.73;;;5.03;;
73266;SDS011;61495;53.400;7.608;2023-04-19T00:41:59;10.00;;;6.18;;
73266;SDS011;61495;53.400;7.608;2023-04-19T00:44:25;11.10;;;5.57;;
73266;SDS011;61495;53.400;7.608;2023-04-19T00:46:51;8.80;;;4.70;;
73266;SDS011;61495;53.400;7.608;2023-04-19T00:49:17;8.23;;;4.95;;
73266;SDS011;61495;53.400;7.608;2023-04-19T00:51:45;8.75;;;4.82;;
73266;SDS011;61495;53.400;7.608;2023-04-19T00:54:11;9.30;;;5.20;;
73266;SDS011;61495;53.400;7.608;2023-04-19T00:56:37;11.55;;;4.93;;
73266;SDS011;61495;53.400;7.608;2023-04-19T00:59:04;11.25;;;4.93;;
73266;SDS011;61495;53.400;7.608;2023-04-19T01:01:30;9.07;;;4.60;;
73266;SDS011;61495;53.400;7.608;2023-04-19T01:03:56;9.48;;;5.05;;
73266;SDS011;61495;53.400;7.608;2023-04-19T01:06:22;8.02;;;4.72;;
73266;SDS011;61495;53.400;7.608;2023-04-19T01:08:47;9.25;;;5.20;;
73266;SDS011;61495;53.400;7.608;2023-04-19T01:11:13;8.90;;;4.72;;
73266;SDS011;61495;53.400;7.608;2023-04-19T01:13:38;8.90;;;5.53;;
73266;SDS011;61495;53.400;7.608;2023-04-19T01:16:04;11.10;;;5.15;;
73266;SDS011;61495;53.400;7.608;2023-04-19T01:18:30;9.93;;;4.80;;
73266;SDS011;61495;53.400;7.608;2023-04-19T01:20:57;9.95;;;5.05;;
73266;SDS011;61495;53.400;7.608;2023-04-19T01:23:23;8.77;;;4.93;;
73266;SDS011;61495;53.400;7.608;2023-04-19T01:25:48;8.65;;;4.72;;
73266;SDS011;61495;53.400;7.608;2023-04-19T01:28:14;10.65;;;5.22;;
73266;SDS011;61495;53.400;7.608;2023-04-19T01:30:40;11.05;;;5.43;;
73266;SDS011;61495;53.400;7.608;2023-04-19T01:33:06;13.13;;;5.72;;
73266;SDS011;61495;53.400;7.608;2023-04-19T01:35:31;8.57;;;4.45;;
73266;SDS011;61495;53.400;7.608;2023-04-19T01:37:56;9.20;;;5.20;;
73266;SDS011;61495;53.400;7.608;2023-04-19T01:40:22;9.68;;;4.90;;
73266;SDS011;61495;53.400;7.608;2023-04-19T01:42:49;9.73;;;4.70;;
73266;SDS011;61495;53.400;7.608;2023-04-19T01:45:15;9.75;;;4.70;;
73266;SDS011;61495;53.400;7.608;2023-04-19T01:47:40;7.45;;;4.25;;
73266;SDS011;61495;53.400;7.608;2023-04-19T01:50:06;8.80;;;4.15;;
73266;SDS011;61495;53.400;7.608;2023-04-19T01:52:32;10.02;;;4.43;;
73266;SDS011;61495;53.400;7.608;2023-04-19T01:55:02;7.25;;;4.18;;
73266;SDS011;61495;53.400;7.608;2023-04-19T01:57:28;12.52;;;5.03;;
73266;SDS011;61495;53.400;7.608;2023-04-19T01:59:53;10.65;;;5.63;;
73266;SDS011;61495;53.400;7.608;2023-04-19T02:02:19;12.13;;;5.03;;
73266;SDS011;61495;53.400;7.608;2023-04-19T02:04:44;8.95;;;4.55;;
73266;SDS011;61495;53.400;7.608;2023-04-19T02:07:09;12.13;;;5.57;;
73266;SDS011;61495;53.400;7.608;2023-04-19T02:09:35;9.18;;;4.43;;
73266;SDS011;61495;53.400;7.608;2023-04-19T02:12:02;9.32;;;4.35;;
73266;SDS011;61495;53.400;7.608;2023-04-19T02:14:28;9.18;;;4.78;;
73266;SDS011;61495;53.400;7.608;2023-04-19T02:16:54;9.32;;;4.55;;
73266;SDS011;61495;53.400;7.608;2023-04-19T02:19:20;8.75;;;4.72;;
73266;SDS011;61495;53.400;7.608;2023-04-19T02:21:45;8.95;;;4.35;;
73266;SDS011;61495;53.400;7.608;2023-04-19T02:24:13;8.60;;;4.25;;
73266;SDS011;61495;53.400;7.608;2023-04-19T02:26:39;10.93;;;4.35;;
73266;SDS011;61495;53.400;7.608;2023-04-19T02:29:05;10.82;;;4.60;;
73266;SDS011;61495;53.400;7.608;2023-04-19T02:31:30;7.82;;;4.45;;
73266;SDS011;61495;53.400;7.608;2023-04-19T02:33:56;10.20;;;4.85;;
73266;SDS011;61495;53.400;7.608;2023-04-19T02:36:21;8.77;;;4.38;;
73266;SDS011;61495;53.400;7.608;2023-04-19T02:38:47;9.65;;;4.30;;
73266;SDS011;61495;53.400;7.608;2023-04-19T02:41:12;9.18;;;4.13;;
73266;SDS011;61495;53.400;7.608;2023-04-19T02:43:38;8.80;;;4.53;;
73266;SDS011;61495;53.400;7.608;2023-04-19T02:46:03;7.75;;;4.43;;
73266;SDS011;61495;53.400;7.608;2023-04-19T02:48:28;9.00;;;4.38;;
73266;SDS011;61495;53.400;7.608;2023-04-19T02:50:54;8.52;;;4.03;;
73266;SDS011;61495;53.400;7.608;2023-04-19T02:53:24;8.57;;;4.20;;
73266;SDS011;61495;53.400;7.608;2023-04-19T02:55:50;10.10;;;5.05;;
73266;SDS011;61495;53.400;7.608;2023-04-19T02:58:15;8.02;;;4.38;;
73266;SDS011;61495;53.400;7.608;2023-04-19T03:00:41;8.23;;;4.20;;
73266;SDS011;61495;53.400;7.608;2023-04-19T03:03:06;7.18;;;3.80;;
73266;SDS011;61495;53.400;7.608;2023-04-19T03:05:33;9.68;;;3.65;;
73266;SDS011;61495;53.400;7.608;2023-04-19T03:07:58;6.82;;;4.20;;
73266;SDS011;61495;53.400;7.608;2023-04-19T03:10:24;8.38;;;4.03;;
73266;SDS011;61495;53.400;7.608;2023-04-19T03:12:50;8.73;;;4.05;;
73266;SDS011;61495;53.400;7.608;2023-04-19T03:15:15;6.15;;;3.60;;
73266;SDS011;61495;53.400;7.608;2023-04-19T03:17:42;6.50;;;3.60;;
73266;SDS011;61495;53.400;7.608;2023-04-19T03:20:07;7.85;;;3.40;;
73266;SDS011;61495;53.400;7.608;2023-04-19T03:22:35;7.07;;;3.58;;
73266;SDS011;61495;53.400;7.608;2023-04-19T03:25:10;7.18;;;3.33;;
73266;SDS011;61495;53.400;7.608;2023-04-19T03:27:37;6.72;;;3.35;;
73266;SDS011;61495;53.400;7.608;2023-04-19T03:30:03;7.47;;;3.40;;
73266;SDS011;61495;53.400;7.608;2023-04-19T03:32:29;9.30;;;3.97;;
73266;SDS011;61495;53.400;7.608;2023-04-19T03:34:55;7.18;;;3.22;;
73266;SDS011;61495;53.400;7.608;2023-04-19T03:37:21;6.88;;;3.20;;
73266;SDS011;61495;53.400;7.608;2023-04-19T03:39:46;6.65;;;3.60;;
73266;SDS011;61495;53.400;7.608;2023-04-19T03:42:12;7.68;;;3.03;;
73266;SDS011;61495;53.400;7.608;2023-04-19T03:44:37;6.68;;;3.80;;
73266;SDS011;61495;53.400;7.608;2023-04-19T03:47:03;7.95;;;3.53;;
73266;SDS011;61495;53.400;7.608;2023-04-19T03:49:28;8.65;;;3.65;;
73266;SDS011;61495;53.400;7.608;2023-04-19T03:51:54;6.95;;;3.30;;
73266;SDS011;61495;53.400;7.608;2023-04-19T03:54:28;7.10;;;3.30;;
73266;SDS011;61495;53.400;7.608;2023-04-19T03:56:53;6.72;;;3.10;;
73266;SDS011;61495;53.400;7.608;2023-04-19T03:59:19;7.00;;;3.17;;
73266;SDS011;61495;53.400;7.608;2023-04-19T04:01:44;7.05;;;2.97;;
73266;SDS011;61495;53.400;7.608;2023-04-19T04:04:10;5.30;;;2.90;;
73266;SDS011;61495;53.400;7.608;2023-04-19T04:06:38;5.20;;;2.78;;
73266;SDS011;61495;53.400;7.608;2023-04-19T04:09:04;6.82;;;2.97;;
73266;SDS011;61495;53.400;7.608;2023-04-19T04:11:29;6.20;;;2.88;;
73266;SDS011;61495;53.400;7.608;2023-04-19T04:13:55;6.55;;;3.60;;
73266;SDS011;61495;53.400;7.608;2023-04-19T04:16:20;7.35;;;3.25;;
73266;SDS011;61495;53.400;7.608;2023-04-19T04:18:48;7.18;;;3.17;;
73266;SDS011;61495;53.400;7.608;2023-04-19T04:21:13;6.07;;;3.33;;
73266;SDS011;61495;53.400;7.608;2023-04-19T04:23:39;5.25;;;2.90;;
73266;SDS011;61495;53.400;7.608;2023-04-19T04:26:05;6.80;;;3.17;;
73266;SDS011;61495;53.400;7.608;2023-04-19T04:28:33;6.63;;;2.97;;
73266;SDS011;61495;53.400;7.608;2023-04-19T04:30:59;6.30;;;2.63;;
73266;SDS011;61495;53.400;7.608;2023-04-19T04:33:25;5.95;;;2.80;;
73266;SDS011;61495;53.400;7.608;2023-04-19T04:35:51;6.22;;;2.75;;
73266;SDS011;61495;53.400;7.608;2023-04-19T04:38:17;7.30;;;3.33;;
73266;SDS011;61495;53.400;7.608;2023-04-19T04:40:48;8.35;;;2.75;;
73266;SDS011;61495;53.400;7.608;2023-04-19T04:43:23;8.77;;;3.03;;
73266;SDS011;61495;53.400;7.608;2023-04-19T04:45:49;7.75;;;2.92;;
73266;SDS011;61495;53.400;7.608;2023-04-19T04:48:15;7.85;;;3.00;;
73266;SDS011;61495;53.400;7.608;2023-04-19T04:50:41;6.30;;;2.38;;
73266;SDS011;61495;53.400;7.608;2023-04-19T04:53:08;6.15;;;2.95;;
73266;SDS011;61495;53.400;7.608;2023-04-19T04:55:33;7.47;;;2.95;;
73266;SDS011;61495;53.400;7.608;2023-04-19T04:57:59;5.70;;;2.78;;
73266;SDS011;61495;53.400;7.608;2023-04-19T05:00:24;7.53;;;3.28;;
73266;SDS011;61495;53.400;7.608;2023-04-19T05:02:50;6.20;;;2.80;;
73266;SDS011;61495;53.400;7.608;2023-04-19T05:05:15;6.57;;;3.10;;
73266;SDS011;61495;53.400;7.608;2023-04-19T05:07:40;6.85;;;3.17;;
73266;SDS011;61495;53.400;7.608;2023-04-19T05:10:06;6.05;;;2.70;;
73266;SDS011;61495;53.400;7.608;2023-04-19T05:12:32;6.13;;;2.88;;
73266;SDS011;61495;53.400;7.608;2023-04-19T05:14:58;6.57;;;3.08;;
73266;SDS011;61495;53.400;7.608;2023-04-19T05:17:23;5.93;;;2.83;;
73266;SDS011;61495;53.400;7.608;2023-04-19T05:19:49;5.13;;;2.50;;
73266;SDS011;61495;53.400;7.608;2023-04-19T05:22:15;6.35;;;2.45;;
73266;SDS011;61495;53.400;7.608;2023-04-19T05:24:55;7.13;;;3.03;;
73266;SDS011;61495;53.400;7.608;2023-04-19T05:27:21;6.97;;;3.03;;
73266;SDS011;61495;53.400;7.608;2023-04-19T05:29:46;4.85;;;2.65;;
73266;SDS011;61495;53.400;7.608;2023-04-19T05:32:12;7.95;;;3.05;;
73266;SDS011;61495;53.400;7.608;2023-04-19T05:34:37;7.03;;;2.85;;
73266;SDS011;61495;53.400;7.608;2023-04-19T05:37:04;5.68;;;2.28;;
73266;SDS011;61495;53.400;7.608;2023-04-19T05:39:29;6.20;;;3.03;;
73266;SDS011;61495;53.400;7.608;2023-04-19T05:41:55;5.97;;;2.78;;
73266;SDS011;61495;53.400;7.608;2023-04-19T05:44:20;6.60;;;2.85;;
73266;SDS011;61495;53.400;7.608;2023-04-19T05:46:45;6.07;;;2.58;;
73266;SDS011;61495;53.400;7.608;2023-04-19T05:49:11;7.28;;;3.03;;
73266;SDS011;61495;53.400;7.608;2023-04-19T05:51:36;5.72;;;2.65;;
73266;SDS011;61495;53.400;7.608;2023-04-19T05:54:01;5.10;;;2.40;;
73266;SDS011;61495;53.400;7.608;2023-04-19T05:56:27;6.68;;;2.92;;
73266;SDS011;61495;53.400;7.608;2023-04-19T05:58:53;5.47;;;2.30;;
73266;SDS011;61495;53.400;7.608;2023-04-19T06:01:20;8.27;;;2.78;;
73266;SDS011;61495;53.400;7.608;2023-04-19T06:03:45;6.05;;;2.35;;
73266;SDS011;61495;53.400;7.608;2023-04-19T06:06:11;4.25;;;2.20;;
73266;SDS011;61495;53.400;7.608;2023-04-19T06:08:37;6.85;;;2.40;;
73266;SDS011;61495;53.400;7.608;2023-04-19T06:11:02;5.40;;;2.70;;
73266;SDS011;61495;53.400;7.608;2023-04-19T06:13:27;4.60;;;2.08;;
73266;SDS011;61495;53.400;7.608;2023-04-19T06:15:53;6.28;;;2.03;;
73266;SDS011;61495;53.400;7.608;2023-04-19T06:18:18;5.40;;;2.20;;
73266;SDS011;61495;53.400;7.608;2023-04-19T06:20:45;4.45;;;2.17;;
73266;SDS011;61495;53.400;7.608;2023-04-19T06:23:17;5.30;;;2.30;;
73266;SDS011;61495;53.400;7.608;2023-04-19T06:25:42;5.90;;;2.17;;
73266;SDS011;61495;53.400;7.608;2023-04-19T06:28:08;4.07;;;2.10;;
73266;SDS011;61495;53.400;7.608;2023-04-19T06:30:33;4.35;;;2.08;;
73266;SDS011;61495;53.400;7.608;2023-04-19T06:32:59;4.68;;;1.52;;
73266;SDS011;61495;53.400;7.608;2023-04-19T06:35:24;4.70;;;1.73;;
73266;SDS011;61495;53.400;7.608;2023-04-19T06:37:50;5.70;;;1.88;;
73266;SDS011;61495;53.400;7.608;2023-04-19T06:40:15;3.28;;;1.48;;
73266;SDS011;61495;53.400;7.608;2023-04-19T06:42:41;3.42;;;2.05;;
73266;SDS011;61495;53.400;7.608;2023-04-19T06:45:06;3.67;;;1.27;;
73266;SDS011;61495;53.400;7.608;2023-04-19T06:47:32;2.95;;;1.40;;
73266;SDS011;61495;53.400;7.608;2023-04-19T06:49:57;3.88;;;1.52;;
73266;SDS011;61495;53.400;7.608;2023-04-19T06:52:23;4.63;;;1.85;;
73266;SDS011;61495;53.400;7.608;2023-04-19T06:54:48;4.38;;;1.38;;
73266;SDS011;61495;53.400;7.608;2023-04-19T06:57:15;5.22;;;1.55;;
73266;SDS011;61495;53.400;7.608;2023-04-19T06:59:40;4.55;;;1.85;;
73266;SDS011;61495;53.400;7.608;2023-04-19T07:02:06;3.38;;;1.55;;
73266;SDS011;61495;53.400;7.608;2023-04-19T07:04:32;3.63;;;1.58;;
73266;SDS011;61495;53.400;7.608;2023-04-19T07:06:57;2.67;;;1.40;;
73266;SDS011;61495;53.400;7.608;2023-04-19T07:09:23;4.05;;;1.83;;
73266;SDS011;61495;53.400;7.608;2023-04-19T07:11:48;3.25;;;1.20;;
73266;SDS011;61495;53.400;7.608;2023-04-19T07:14:15;3.55;;;1.13;;
73266;SDS011;61495;53.400;7.608;2023-04-19T07:16:43;4.20;;;1.35;;
73266;SDS011;61495;53.400;7.608;2023-04-19T07:19:09;3.45;;;1.65;;
73266;SDS011;61495;53.400;7.608;2023-04-19T07:21:34;3.50;;;1.30;;
73266;SDS011;61495;53.400;7.608;2023-04-19T07:24:05;3.42;;;1.70;;
73266;SDS011;61495;53.400;7.608;2023-04-19T07:26:31;3.00;;;1.13;;
73266;SDS011;61495;53.400;7.608;2023-04-19T07:28:57;3.13;;;1.65;;
73266;SDS011;61495;53.400;7.608;2023-04-19T07:31:23;3.67;;;1.38;;
73266;SDS011;61495;53.400;7.608;2023-04-19T07:33:49;3.50;;;1.20;;
73266;SDS011;61495;53.400;7.608;2023-04-19T07:36:16;2.92;;;1.65;;
73266;SDS011;61495;53.400;7.608;2023-04-19T07:38:41;4.03;;;1.58;;
73266;SDS011;61495;53.400;7.608;2023-04-19T07:41:07;2.58;;;1.00;;
73266;SDS011;61495;53.400;7.608;2023-04-19T07:43:33;3.85;;;1.25;;
73266;SDS011;61495;53.400;7.608;2023-04-19T07:45:58;3.63;;;1.40;;
73266;SDS011;61495;53.400;7.608;2023-04-19T07:48:24;5.40;;;1.63;;
73266;SDS011;61495;53.400;7.608;2023-04-19T07:50:49;4.20;;;1.67;;
73266;SDS011;61495;53.400;7.608;2023-04-19T07:53:20;3.45;;;1.55;;
73266;SDS011;61495;53.400;7.608;2023-04-19T07:55:45;2.92;;;1.67;;
73266;SDS011;61495;53.400;7.608;2023-04-19T07:58:10;3.15;;;1.67;;
73266;SDS011;61495;53.400;7.608;2023-04-19T08:00:36;2.50;;;1.50;;
73266;SDS011;61495;53.400;7.608;2023-04-19T08:03:02;2.45;;;1.00;;
73266;SDS011;61495;53.400;7.608;2023-04-19T08:05:28;3.15;;;1.40;;
73266;SDS011;61495;53.400;7.608;2023-04-19T08:07:54;3.28;;;1.25;;
73266;SDS011;61495;53.400;7.608;2023-04-19T08:10:19;3.50;;;1.52;;
73266;SDS011;61495;53.400;7.608;2023-04-19T08:12:45;3.28;;;1.55;;
73266;SDS011;61495;53.400;7.608;2023-04-19T08:15:10;3.28;;;1.58;;
73266;SDS011;61495;53.400;7.608;2023-04-19T08:17:36;3.47;;;1.45;;
73266;SDS011;61495;53.400;7.608;2023-04-19T08:20:01;2.90;;;1.15;;
73266;SDS011;61495;53.400;7.608;2023-04-19T08:22:27;3.40;;;1.42;;
73266;SDS011;61495;53.400;7.608;2023-04-19T08:24:58;2.83;;;1.42;;
73266;SDS011;61495;53.400;7.608;2023-04-19T08:27:23;2.45;;;0.90;;
73266;SDS011;61495;53.400;7.608;2023-04-19T08:29:51;3.60;;;1.08;;
73266;SDS011;61495;53.400;7.608;2023-04-19T08:32:16;1.88;;;0.93;;
73266;SDS011;61495;53.400;7.608;2023-04-19T08:34:41;1.75;;;1.00;;
73266;SDS011;61495;53.400;7.608;2023-04-19T08:37:07;2.38;;;0.80;;
73266;SDS011;61495;53.400;7.608;2023-04-19T08:39:32;2.50;;;1.23;;
73266;SDS011;61495;53.400;7.608;2023-04-19T08:42:07;3.78;;;1.33;;
73266;SDS011;61495;53.400;7.608;2023-04-19T08:44:34;3.75;;;0.98;;
73266;SDS011;61495;53.400;7.608;2023-04-19T08:47:02;3.15;;;0.93;;
73266;SDS011;61495;53.400;7.608;2023-04-19T08:49:28;2.58;;;1.20;;
73266;SDS011;61495;53.400;7.608;2023-04-19T08:51:54;3.08;;;1.00;;
73266;SDS011;61495;53.400;7.608;2023-04-19T08:54:29;2.65;;;1.20;;
73266;SDS011;61495;53.400;7.608;2023-04-19T08:56:58;2.63;;;1.10;;
73266;SDS011;61495;53.400;7.608;2023-04-19T08:59:24;2.15;;;0.85;;
73266;SDS011;61495;53.400;7.608;2023-04-19T09:01:50;2.63;;;1.00;;
73266;SDS011;61495;53.400;7.608;2023-04-19T09:04:15;2.17;;;0.98;;
73266;SDS011;61495;53.400;7.608;2023-04-19T09:06:40;3.92;;;0.90;;
73266;SDS011;61495;53.400;7.608;2023-04-19T09:09:25;2.40;;;1.05;;
73266;SDS011;61495;53.400;7.608;2023-04-19T09:11:52;3.72;;;1.15;;
73266;SDS011;61495;53.400;7.608;2023-04-19T09:14:18;5.30;;;1.50;;
73266;SDS011;61495;53.400;7.608;2023-04-19T09:16:46;2.80;;;0.98;;
73266;SDS011;61495;53.400;7.608;2023-04-19T09:19:12;1.65;;;1.00;;
73266;SDS011;61495;53.400;7.608;2023-04-19T09:21:40;4.45;;;1.58;;
73266;SDS011;61495;53.400;7.608;2023-04-19T09:24:06;2.17;;;1.00;;
73266;SDS011;61495;53.400;7.608;2023-04-19T09:26:32;3.72;;;1.23;;
73266;SDS011;61495;53.400;7.608;2023-04-19T09:28:58;3.60;;;1.15;;
73266;SDS011;61495;53.400;7.608;2023-04-19T09:31:26;2.60;;;1.10;;
73266;SDS011;61495;53.400;7.608;2023-04-19T09:33:53;3.53;;;1.10;;
73266;SDS011;61495;53.400;7.608;2023-04-19T09:36:26;3.72;;;1.50;;
73266;SDS011;61495;53.400;7.608;2023-04-19T09:38:52;4.80;;;1.83;;
73266;SDS011;61495;53.400;7.608;2023-04-19T09:41:18;3.40;;;1.23;;
73266;SDS011;61495;53.400;7.608;2023-04-19T09:43:43;4.50;;;1.50;;
73266;SDS011;61495;53.400;7.608;2023-04-19T09:46:25;3.50;;;1.85;;
73266;SDS011;61495;53.400;7.608;2023-04-19T09:48:55;4.22;;;1.10;;
73266;SDS011;61495;53.400;7.608;2023-04-19T09:51:44;3.53;;;1.00;;
73266;SDS011;61495;53.400;7.608;2023-04-19T09:54:11;2.65;;;1.55;;
73266;SDS011;61495;53.400;7.608;2023-04-19T09:56:37;4.60;;;1.33;;
73266;SDS011;61495;53.400;7.608;2023-04-19T09:59:04;3.10;;;1.63;;
73266;SDS011;61495;53.400;7.608;2023-04-19T10:01:54;3.50;;;1.58;;
73266;SDS011;61495;53.400;7.608;2023-04-19T10:04:19;3.13;;;1.25;;
73266;SDS011;61495;53.400;7.608;2023-04-19T10:06:49;3.72;;;1.10;;
73266;SDS011;61495;53.400;7.608;2023-04-19T10:09:25;3.45;;;1.40;;
73266;SDS011;61495;53.400;7.608;2023-04-19T10:11:52;6.53;;;2.00;;
73266;SDS011;61495;53.400;7.608;2023-04-19T10:14:22;4.25;;;1.77;;
73266;SDS011;61495;53.400;7.608;2023-04-19T10:16:51;4.57;;;2.00;;
73266;SDS011;61495;53.400;7.608;2023-04-19T10:19:17;3.92;;;1.65;;
73266;SDS011;61495;53.400;7.608;2023-04-19T10:21:45;3.90;;;1.73;;
73266;SDS011;61495;53.400;7.608;2023-04-19T10:24:16;3.85;;;1.73;;
73266;SDS011;61495;53.400;7.608;2023-04-19T10:32:35;4.80;;;2.20;;
73266;SDS011;61495;53.400;7.608;2023-04-19T10:35:25;3.60;;;1.90;;
73266;SDS011;61495;53.400;7.608;2023-04-19T10:43:30;4.50;;;2.40;;
73266;SDS011;61495;53.400;7.608;2023-04-19T10:46:01;4.63;;;1.73;;
73266;SDS011;61495;53.400;7.608;2023-04-19T10:48:33;4.47;;;1.70;;
73266;SDS011;61495;53.400;7.608;2023-04-19T10:51:15;4.78;;;1.60;;
73266;SDS011;61495;53.400;7.608;2023-04-19T10:53:56;6.03;;;2.40;;
73266;SDS011;61495;53.400;7.608;2023-04-19T11:01:31;6.03;;;2.08;;
73266;SDS011;61495;53.400;7.608;2023-04-19T11:03:58;4.45;;;2.22;;
73266;SDS011;61495;53.400;7.608;2023-04-19T11:06:24;2.78;;;1.30;;
73266;SDS011;61495;53.400;7.608;2023-04-19T11:08:52;3.40;;;1.50;;
73266;SDS011;61495;53.400;7.608;2023-04-19T11:11:18;3.08;;;1.55;;
73266;SDS011;61495;53.400;7.608;2023-04-19T11:13:48;6.72;;;1.67;;
73266;SDS011;61495;53.400;7.608;2023-04-19T11:16:14;2.67;;;1.30;;
73266;SDS011;61495;53.400;7.608;2023-04-19T11:18:39;4.65;;;1.42;;
73266;SDS011;61495;53.400;7.608;2023-04-19T11:21:05;3.78;;;1.35;;
73266;SDS011;61495;53.400;7.608;2023-04-19T11:23:33;3.33;;;1.35;;
73266;SDS011;61495;53.400;7.608;2023-04-19T11:25:59;2.70;;;1.42;;
73266;SDS011;61495;53.400;7.608;2023-04-19T11:28:24;4.00;;;1.17;;
73266;SDS011;61495;53.400;7.608;2023-04-19T11:30:49;4.32;;;2.05;;
73266;SDS011;61495;53.400;7.608;2023-04-19T11:33:18;3.80;;;1.20;;
73266;SDS011;61495;53.400;7.608;2023-04-19T11:35:48;3.00;;;1.30;;
73266;SDS011;61495;53.400;7.608;2023-04-19T11:38:14;3.88;;;1.83;;
73266;SDS011;61495;53.400;7.608;2023-04-19T11:40:39;5.65;;;2.08;;
73266;SDS011;61495;53.400;7.608;2023-04-19T11:43:05;4.55;;;1.25;;
73266;SDS011;61495;53.400;7.608;2023-04-19T11:45:32;5.82;;;1.33;;
73266;SDS011;61495;53.400;7.608;2023-04-19T11:48:00;3.78;;;1.25;;
73266;SDS011;61495;53.400;7.608;2023-04-19T11:50:39;4.20;;;1.52;;
73266;SDS011;61495;53.400;7.608;2023-04-19T11:55:48;2.63;;;1.17;;
73266;SDS011;61495;53.400;7.608;2023-04-19T11:58:22;4.72;;;1.70;;
73266;SDS011;61495;53.400;7.608;2023-04-19T12:00:47;3.55;;;1.48;;
73266;SDS011;61495;53.400;7.608;2023-04-19T12:03:13;3.97;;;1.60;;
73266;SDS011;61495;53.400;7.608;2023-04-19T12:05:38;3.13;;;1.50;;
73266;SDS011;61495;53.400;7.608;2023-04-19T12:08:05;2.60;;;1.20;;
73266;SDS011;61495;53.400;7.608;2023-04-19T12:10:33;2.95;;;1.23;;
73266;SDS011;61495;53.400;7.608;2023-04-19T12:13:00;2.58;;;1.15;;
73266;SDS011;61495;53.400;7.608;2023-04-19T12:15:43;4.03;;;1.42;;
73266;SDS011;61495;53.400;7.608;2023-04-19T12:18:09;3.92;;;1.60;;
73266;SDS011;61495;53.400;7.608;2023-04-19T12:20:36;2.70;;;1.20;;
73266;SDS011;61495;53.400;7.608;2023-04-19T12:23:08;4.97;;;1.90;;
73266;SDS011;61495;53.400;7.608;2023-04-19T12:25:37;4.30;;;1.95;;
73266;SDS011;61495;53.400;7.608;2023-04-19T12:28:03;3.58;;;1.60;;
73266;SDS011;61495;53.400;7.608;2023-04-19T12:30:29;4.10;;;1.25;;
73266;SDS011;61495;53.400;7.608;2023-04-19T12:32:55;3.38;;;1.42;;
73266;SDS011;61495;53.400;7.608;2023-04-19T12:35:21;3.38;;;1.40;;
73266;SDS011;61495;53.400;7.608;2023-04-19T12:37:48;3.00;;;1.40;;
73266;SDS011;61495;53.400;7.608;2023-04-19T12:40:14;2.95;;;1.30;;
73266;SDS011;61495;53.400;7.608;2023-04-19T12:42:39;4.70;;;1.40;;
73266;SDS011;61495;53.400;7.608;2023-04-19T12:45:05;3.75;;;1.60;;
73266;SDS011;61495;53.400;7.608;2023-04-19T12:47:31;3.08;;;1.42;;
73266;SDS011;61495;53.400;7.608;2023-04-19T12:49:56;3.88;;;1.42;;
73266;SDS011;61495;53.400;7.608;2023-04-19T12:52:22;4.07;;;1.90;;
73266;SDS011;61495;53.400;7.608;2023-04-19T12:54:48;3.67;;;1.20;;
73266;SDS011;61495;53.400;7.608;2023-04-19T12:57:14;4.43;;;1.98;;
73266;SDS011;61495;53.400;7.608;2023-04-19T12:59:39;3.65;;;1.10;;
73266;SDS011;61495;53.400;7.608;2023-04-19T13:02:05;8.18;;;1.70;;
73266;SDS011;61495;53.400;7.608;2023-04-19T13:04:31;2.92;;;1.25;;
73266;SDS011;61495;53.400;7.608;2023-04-19T13:06:57;3.67;;;1.92;;
73266;SDS011;61495;53.400;7.608;2023-04-19T13:09:22;3.05;;;1.58;;
73266;SDS011;61495;53.400;7.608;2023-04-19T13:11:48;4.50;;;1.50;;
73266;SDS011;61495;53.400;7.608;2023-04-19T13:14:13;3.47;;;1.48;;
73266;SDS011;61495;53.400;7.608;2023-04-19T13:16:39;3.70;;;1.60;;
73266;SDS011;61495;53.400;7.608;2023-04-19T13:19:04;3.15;;;1.63;;
73266;SDS011;61495;53.400;7.608;2023-04-19T13:21:29;3.58;;;1.60;;
73266;SDS011;61495;53.400;7.608;2023-04-19T13:23:58;3.60;;;1.70;;
73266;SDS011;61495;53.400;7.608;2023-04-19T13:26:23;3.45;;;1.30;;
73266;SDS011;61495;53.400;7.608;2023-04-19T13:28:49;3.90;;;1.63;;
73266;SDS011;61495;53.400;7.608;2023-04-19T13:31:15;3.65;;;1.13;;
73266;SDS011;61495;53.400;7.608;2023-04-19T13:33:40;3.72;;;1.30;;
73266;SDS011;61495;53.400;7.608;2023-04-19T13:36:06;2.75;;;1.25;;
73266;SDS011;61495;53.400;7.608;2023-04-19T13:38:31;4.40;;;1.50;;
73266;SDS011;61495;53.400;7.608;2023-04-19T13:40:57;4.72;;;1.42;;
73266;SDS011;61495;53.400;7.608;2023-04-19T13:43:23;4.45;;;1.90;;
73266;SDS011;61495;53.400;7.608;2023-04-19T13:45:48;4.63;;;1.40;;
73266;SDS011;61495;53.400;7.608;2023-04-19T13:48:13;2.88;;;1.40;;
73266;SDS011;61495;53.400;7.608;2023-04-19T13:50:39;4.13;;;1.90;;
73266;SDS011;61495;53.400;7.608;2023-04-19T13:53:13;3.20;;;1.70;;
73266;SDS011;61495;53.400;7.608;2023-04-19T13:55:39;3.30;;;1.80;;
73266;SDS011;61495;53.400;7.608;2023-04-19T13:58:05;3.28;;;1.70;;
73266;SDS011;61495;53.400;7.608;2023-04-19T14:00:30;4.45;;;1.50;;
73266;SDS011;61495;53.400;7.608;2023-04-19T14:02:55;6.13;;;1.63;;
73266;SDS011;61495;53.400;7.608;2023-04-19T14:05:21;3.15;;;1.67;;
73266;SDS011;61495;53.400;7.608;2023-04-19T14:07:46;3.85;;;1.30;;
73266;SDS011;61495;53.400;7.608;2023-04-19T14:10:12;2.85;;;1.25;;
73266;SDS011;61495;53.400;7.608;2023-04-19T14:12:37;3.00;;;1.42;;
73266;SDS011;61495;53.400;7.608;2023-04-19T14:15:02;3.10;;;1.30;;
73266;SDS011;61495;53.400;7.608;2023-04-19T14:17:28;3.63;;;1.50;;
73266;SDS011;61495;53.400;7.608;2023-04-19T14:19:54;4.03;;;1.80;;
73266;SDS011;61495;53.400;7.608;2023-04-19T14:22:20;3.50;;;1.13;;
73266;SDS011;61495;53.400;7.608;2023-04-19T14:24:46;5.60;;;1.88;;
73266;SDS011;61495;53.400;7.608;2023-04-19T14:27:11;4.28;;;1.52;;
73266;SDS011;61495;53.400;7.608;2023-04-19T14:29:36;3.50;;;1.77;;
73266;SDS011;61495;53.400;7.608;2023-04-19T14:32:02;2.78;;;1.30;;
73266;SDS011;61495;53.400;7.608;2023-04-19T14:34:27;4.18;;;1.20;;
73266;SDS011;61495;53.400;7.608;2023-04-19T14:36:53;3.20;;;1.27;;
73266;SDS011;61495;53.400;7.608;2023-04-19T14:39:18;3.70;;;1.20;;
73266;SDS011;61495;53.400;7.608;2023-04-19T14:41:44;3.42;;;1.50;;
73266;SDS011;61495;53.400;7.608;2023-04-19T14:44:09;3.75;;;1.80;;
73266;SDS011;61495;53.400;7.608;2023-04-19T14:46:35;3.97;;;1.38;;
73266;SDS011;61495;53.400;7.608;2023-04-19T14:49:00;5.60;;;1.45;;
73266;SDS011;61495;53.400;7.608;2023-04-19T14:51:29;3.50;;;1.40;;
73266;SDS011;61495;53.400;7.608;2023-04-19T14:53:55;3.65;;;1.60;;
73266;SDS011;61495;53.400;7.608;2023-04-19T14:56:22;2.85;;;1.30;;
73266;SDS011;61495;53.400;7.608;2023-04-19T14:58:47;3.65;;;1.60;;
73266;SDS011;61495;53.400;7.608;2023-04-19T15:01:13;4.38;;;1.63;;
73266;SDS011;61495;53.400;7.608;2023-04-19T15:03:39;3.55;;;1.30;;